This is the latest recevied weather packets stored in our database for station/object OK3MS-5. If no packets are shown the sender has not sent any weather packets the latest 10 day(s).
| Time | Temp. | Humidity | Pressure | Rain* | Wind** | Luminosity | Snow |
|---|---|---|---|---|---|---|---|
| 1787750703 | 24.44° C | 54% | 1015.3 hPa | 0 mm | - | 200 W/m² | - |
| 1787750405 | 25° C | 53% | 1015.2 hPa | 0 mm | - | 243 W/m² | - |
| 1787750104 | 25° C | 54% | 1015.4 hPa | 0 mm | - | 277 W/m² | - |
| 1787749803 | 24.44° C | 52% | 1015.2 hPa | 0 mm | - | 379 W/m² | - |
| 1787749504 | 24.44° C | 53% | 1015.2 hPa | 0 mm | - | 286 W/m² | - |
| 1787749204 | 24.44° C | 53% | 1015.2 hPa | 0 mm | - | 437 W/m² | - |
| 1787748904 | 24.44° C | 54% | 1015.2 hPa | 0 mm | - | 542 W/m² | - |
| 1787748604 | 25° C | 54% | 1015.1 hPa | 0 mm | - | 265 W/m² | - |
| 1787748306 | 24.44° C | 53% | 1015.2 hPa | 0 mm | - | 381 W/m² | - |
| 1787748003 | 24.44° C | 54% | 1015.2 hPa | 0 mm | - | 214 W/m² | - |
| 1787747703 | 25° C | 52% | 1015.1 hPa | 0 mm | - | 227 W/m² | - |
| 1787747404 | 24.44° C | 54% | 1015.3 hPa | 0 mm | - | 831 W/m² | - |
| 1787747105 | 25° C | 53% | 1015.3 hPa | 0 mm | - | 938 W/m² | - |
| 1787746803 | 24.44° C | 54% | 1015.3 hPa | 0 mm | - | 585 W/m² | - |
| 1787746504 | 24.44° C | 56% | 1015.5 hPa | 0 mm | - | 265 W/m² | - |
| 1787746205 | 24.44° C | 55% | 1015.6 hPa | 0 mm | - | 256 W/m² | - |
| 1787745906 | 23.89° C | 55% | 1015.5 hPa | 0 mm | - | 233 W/m² | - |
| 1787745604 | 24.44° C | 54% | 1015.3 hPa | 0 mm | - | 201 W/m² | - |
| 1787745305 | 23.89° C | 55% | 1015.5 hPa | 0 mm | - | 174 W/m² | - |
| 1787745004 | 23.89° C | 55% | 1015.5 hPa | 0 mm | - | 141 W/m² | - |
| 1787744702 | 24.44° C | 53% | 1015.3 hPa | 0 mm | - | 172 W/m² | - |
| 1787744403 | 24.44° C | 56% | 1015.3 hPa | 0 mm | - | 577 W/m² | - |
| 1787744105 | 25° C | 54% | 1015.4 hPa | 0 mm | - | 296 W/m² | - |
| 1787743808 | 24.44° C | 53% | 1015.5 hPa | 0 mm | - | 211 W/m² | - |
| 1787743503 | 23.89° C | 56% | 1015.6 hPa | 0 mm | - | 799 W/m² | - |
* Rain latest hour (hover to see other rain measurements)
** Current wind speed in m/s (hover to see current wind gust speed)